createdAt,value
2022-08-02T00:00:42.229Z,0.60
2022-08-02T00:03:10.233Z,1.40
2022-08-02T00:05:38.320Z,0.60
2022-08-02T00:08:08.652Z,0.75
2022-08-02T00:10:39.125Z,1.08
2022-08-02T00:13:07.146Z,3.22
2022-08-02T00:15:36.563Z,0.70
2022-08-02T00:18:04.731Z,1.02
2022-08-02T00:20:32.845Z,1.23
2022-08-02T00:23:00.804Z,1.42
2022-08-02T00:25:28.799Z,1.10
2022-08-02T00:27:56.781Z,2.20
2022-08-02T00:30:24.873Z,3.05
2022-08-02T00:32:54.220Z,1.15
2022-08-02T00:35:22.299Z,0.63
2022-08-02T00:37:50.363Z,1.10
2022-08-02T00:40:23.855Z,0.57
2022-08-02T00:43:04.197Z,0.70
2022-08-02T00:45:58.943Z,1.55
2022-08-02T00:48:21.957Z,0.88
2022-08-02T00:50:49.934Z,0.90
2022-08-02T00:53:17.967Z,1.05
2022-08-02T00:55:48.305Z,0.80
2022-08-02T00:58:17.023Z,3.05
2022-08-02T01:00:45.304Z,0.75
2022-08-02T01:03:13.287Z,0.60
2022-08-02T01:06:09.956Z,0.47
2022-08-02T01:08:32.084Z,0.80
2022-08-02T01:11:00.326Z,0.70
2022-08-02T01:13:29.360Z,1.42
2022-08-02T01:16:09.580Z,0.70
2022-08-02T01:18:42.595Z,1.67
2022-08-02T01:21:36.787Z,0.60
2022-08-02T01:24:19.964Z,0.60
2022-08-02T01:26:53.515Z,0.63
2022-08-02T01:29:29.487Z,0.52
2022-08-02T01:32:03.639Z,0.60
2022-08-02T01:34:36.774Z,0.82
2022-08-02T01:37:10.090Z,1.25
2022-08-02T01:39:41.812Z,0.70
2022-08-02T01:42:11.288Z,0.65
2022-08-02T01:44:45.730Z,1.70
2022-08-02T01:47:19.323Z,0.50
2022-08-02T01:49:51.477Z,0.85
2022-08-02T01:52:21.663Z,0.65
2022-08-02T01:54:53.215Z,0.60
2022-08-02T01:57:24.133Z,2.92
2022-08-02T02:00:00.319Z,1.85
2022-08-02T02:02:31.777Z,1.17
2022-08-02T02:05:01.839Z,0.70
2022-08-02T02:07:31.657Z,0.45
2022-08-02T02:10:00.743Z,0.50
2022-08-02T02:12:29.788Z,0.40
2022-08-02T02:15:01.127Z,0.60
2022-08-02T02:17:50.732Z,1.52
2022-08-02T02:20:20.027Z,0.70
2022-08-02T02:22:51.917Z,1.15
2022-08-02T02:25:29.368Z,0.82
2022-08-02T02:28:07.957Z,1.10
2022-08-02T02:30:42.695Z,0.65
2022-08-02T02:33:12.472Z,0.50
2022-08-02T02:35:41.891Z,0.80
2022-08-02T02:38:14.239Z,0.80
2022-08-02T02:40:43.446Z,0.70
2022-08-02T02:43:13.316Z,0.55
2022-08-02T02:45:43.280Z,1.55
2022-08-02T02:48:12.296Z,0.57
2022-08-02T02:50:40.876Z,0.50
2022-08-02T02:53:10.321Z,0.70
2022-08-02T02:55:39.282Z,0.60
2022-08-02T02:58:08.805Z,2.03
2022-08-02T03:00:54.781Z,0.47
2022-08-02T03:03:24.898Z,0.43
2022-08-02T03:05:53.029Z,0.75
2022-08-02T03:08:21.070Z,0.73
2022-08-02T03:10:49.805Z,1.88
2022-08-02T03:13:19.291Z,0.60
2022-08-02T03:15:48.647Z,0.47
2022-08-02T03:21:13.852Z,0.88
2022-08-02T03:23:43.652Z,0.63
2022-08-02T03:26:12.036Z,0.65
2022-08-02T03:28:40.025Z,1.23
2022-08-02T03:31:08.727Z,0.93
2022-08-02T03:33:38.372Z,0.95
2022-08-02T03:36:10.130Z,1.15
2022-08-02T03:38:40.217Z,0.50
2022-08-02T03:41:09.945Z,0.50
2022-08-02T03:43:39.078Z,1.35
2022-08-02T03:46:10.095Z,0.40
2022-08-02T03:48:39.651Z,1.27
2022-08-02T03:51:08.802Z,0.90
2022-08-02T03:53:37.363Z,0.60
2022-08-02T03:56:07.726Z,0.65
2022-08-02T03:58:35.779Z,1.50
2022-08-02T04:01:03.948Z,0.40
2022-08-02T04:03:31.986Z,0.77
2022-08-02T04:06:03.897Z,0.50
2022-08-02T04:08:36.952Z,0.40
2022-08-02T04:11:25.598Z,0.65
2022-08-02T04:13:56.671Z,0.82
2022-08-02T04:16:35.549Z,0.98
2022-08-02T04:19:05.051Z,0.52
2022-08-02T04:21:49.020Z,0.77
2022-08-02T04:24:24.968Z,0.60
2022-08-02T04:26:58.136Z,0.57
2022-08-02T04:29:34.965Z,0.40
2022-08-02T04:32:04.653Z,0.95
2022-08-02T04:34:33.111Z,0.43
2022-08-02T04:37:01.623Z,0.60
2022-08-02T04:39:29.675Z,0.82
2022-08-02T04:41:59.091Z,0.60
2022-08-02T04:44:27.214Z,0.60
2022-08-02T04:46:55.901Z,0.45
2022-08-02T04:49:24.061Z,0.60
2022-08-02T04:51:52.009Z,0.85
2022-08-02T04:54:20.004Z,0.55
2022-08-02T04:56:48.009Z,0.85
2022-08-02T04:59:17.283Z,0.60
2022-08-02T05:01:45.334Z,0.90
2022-08-02T05:04:13.349Z,0.88
2022-08-02T05:06:41.367Z,0.73
2022-08-02T05:09:09.379Z,0.50
2022-08-02T05:11:37.514Z,0.40
2022-08-02T05:14:06.399Z,1.05
2022-08-02T05:16:35.784Z,0.88
2022-08-02T05:19:03.852Z,0.45
2022-08-02T05:21:32.419Z,0.60
2022-08-02T05:24:00.828Z,0.63
2022-08-02T05:26:28.819Z,0.60
2022-08-02T05:28:56.767Z,1.20
2022-08-02T05:31:24.887Z,0.50
2022-08-02T05:33:54.227Z,0.55
2022-08-02T05:36:22.275Z,0.47
2022-08-02T05:38:50.981Z,8.65
2022-08-02T05:41:19.209Z,7.65
2022-08-02T05:43:49.317Z,6.13
2022-08-02T05:46:17.859Z,9.65
2022-08-02T05:48:45.783Z,8.32
2022-08-02T05:51:24.779Z,5.43
2022-08-02T05:53:59.252Z,6.85
2022-08-02T05:56:34.477Z,7.32
2022-08-02T05:59:06.120Z,6.65
2022-08-02T06:01:37.571Z,8.52
2022-08-02T06:04:08.550Z,7.95
2022-08-02T06:06:39.015Z,11.07
2022-08-02T06:09:16.733Z,8.68
2022-08-02T06:12:01.435Z,7.45
2022-08-02T06:14:32.914Z,9.88
2022-08-02T06:17:01.962Z,10.90
2022-08-02T06:19:46.980Z,9.20
2022-08-02T06:22:33.663Z,14.18
2022-08-02T06:25:05.528Z,10.93
2022-08-02T06:27:35.260Z,9.30
2022-08-02T06:30:04.985Z,15.27
2022-08-02T06:32:33.666Z,9.80
2022-08-02T06:35:02.363Z,8.75
2022-08-02T06:37:38.611Z,13.82
2022-08-02T06:40:15.374Z,9.68
2022-08-02T06:42:50.620Z,8.25
2022-08-02T06:45:18.663Z,5.57
2022-08-02T06:47:46.736Z,11.73
2022-08-02T06:50:14.879Z,10.15
2022-08-02T06:52:44.450Z,7.82
2022-08-02T06:55:12.394Z,8.85
2022-08-02T06:57:40.496Z,10.60
2022-08-02T07:00:09.908Z,10.75
2022-08-02T07:02:39.674Z,9.65
2022-08-02T07:05:10.155Z,6.78
2022-08-02T07:07:38.110Z,10.77
2022-08-02T07:10:08.210Z,16.15
2022-08-02T07:12:37.659Z,7.55
2022-08-02T07:15:08.324Z,10.73
2022-08-02T07:17:37.005Z,10.00
2022-08-02T07:20:06.094Z,5.10
2022-08-02T07:22:34.191Z,5.80
2022-08-02T07:25:02.697Z,7.00
2022-08-02T07:27:32.074Z,4.85
2022-08-02T07:30:00.572Z,9.40
2022-08-02T07:32:31.224Z,9.15
2022-08-02T07:35:00.191Z,7.00
2022-08-02T07:37:55.271Z,7.90
2022-08-02T07:40:26.534Z,7.60
2022-08-02T07:43:02.984Z,6.70
2022-08-02T07:45:35.948Z,5.88
2022-08-02T07:48:04.799Z,11.55
2022-08-02T07:50:32.787Z,10.15
2022-08-02T07:53:02.445Z,4.90
2022-08-02T07:55:40.068Z,9.43
2022-08-02T07:58:11.013Z,12.02
2022-08-02T08:00:40.915Z,7.32
2022-08-02T08:03:08.870Z,15.57
2022-08-02T08:05:37.244Z,10.15
2022-08-02T08:08:06.014Z,7.25
2022-08-02T08:10:34.262Z,7.60
2022-08-02T08:13:02.289Z,4.13
2022-08-02T08:15:31.610Z,7.63
2022-08-02T08:17:59.605Z,3.92
2022-08-02T08:20:27.653Z,3.70
2022-08-02T08:22:55.605Z,5.07
2022-08-02T08:25:23.518Z,4.57
2022-08-02T08:27:55.148Z,2.92
2022-08-02T08:30:23.335Z,4.82
2022-08-02T08:32:52.655Z,7.63
2022-08-02T08:35:20.769Z,7.55
2022-08-02T08:37:49.300Z,4.35
2022-08-02T08:40:19.603Z,5.50
2022-08-02T08:42:48.017Z,3.65
2022-08-02T08:45:17.881Z,6.60
2022-08-02T08:47:48.870Z,2.67
2022-08-02T08:50:24.784Z,7.13
2022-08-02T08:52:58.483Z,4.63
2022-08-02T08:55:28.671Z,2.85
2022-08-02T08:57:58.963Z,11.50
2022-08-02T09:00:27.231Z,9.68
2022-08-02T09:02:55.602Z,9.20
2022-08-02T09:05:25.204Z,16.17
2022-08-02T09:07:54.276Z,10.52
2022-08-02T09:10:40.229Z,11.43
2022-08-02T09:13:38.444Z,8.32
2022-08-02T09:16:12.009Z,15.30
2022-08-02T09:18:44.982Z,14.25
2022-08-02T09:21:17.161Z,15.43
2022-08-02T09:23:47.877Z,8.68
2022-08-02T09:26:18.679Z,12.68
2022-08-02T09:28:48.553Z,13.07
2022-08-02T09:31:19.138Z,12.70
2022-08-02T09:33:52.216Z,13.18
2022-08-02T09:36:22.490Z,14.07
2022-08-02T09:38:56.490Z,10.35
2022-08-02T09:41:26.091Z,8.00
2022-08-02T09:44:05.202Z,13.45
2022-08-02T09:46:37.714Z,12.52
2022-08-02T09:49:09.117Z,16.70
2022-08-02T09:51:40.290Z,14.20
2022-08-02T09:54:10.068Z,20.08
2022-08-02T09:56:44.130Z,13.60
2022-08-02T09:59:12.899Z,15.50
2022-08-02T10:01:45.139Z,16.02
2022-08-02T10:04:22.600Z,10.60
2022-08-02T10:06:54.675Z,14.07
2022-08-02T10:09:23.295Z,12.52
2022-08-02T10:11:52.285Z,10.15
2022-08-02T10:14:21.227Z,16.27
2022-08-02T10:16:49.259Z,12.95
2022-08-02T10:19:17.825Z,13.80
2022-08-02T10:22:10.173Z,14.05
2022-08-02T10:24:46.326Z,13.20
2022-08-02T10:27:19.774Z,14.48
2022-08-02T10:29:54.164Z,12.10
2022-08-02T10:32:27.695Z,12.63
2022-08-02T10:35:02.727Z,13.68
2022-08-02T10:37:52.416Z,8.77
2022-08-02T10:40:27.294Z,15.23
2022-08-02T10:45:29.941Z,14.65
2022-08-02T10:48:03.460Z,10.38
2022-08-02T10:50:55.390Z,8.90
2022-08-02T10:53:31.597Z,11.40
2022-08-02T10:56:02.624Z,16.02
2022-08-02T10:58:32.717Z,14.15
2022-08-02T11:01:06.278Z,12.07
2022-08-02T11:03:42.459Z,14.10
2022-08-02T11:06:25.002Z,9.18
2022-08-02T11:09:32.729Z,10.60
2022-08-02T11:12:04.205Z,10.50
2022-08-02T11:14:33.711Z,14.75
2022-08-02T11:17:15.834Z,11.48
2022-08-02T11:20:16.561Z,15.15
2022-08-02T11:22:46.477Z,9.57
2022-08-02T11:26:02.233Z,11.63
2022-08-02T11:28:25.304Z,10.68
2022-08-02T11:31:01.020Z,12.95
2022-08-02T11:33:33.945Z,9.93
2022-08-02T11:36:03.908Z,9.55
2022-08-02T11:38:31.986Z,11.77
2022-08-02T11:41:06.230Z,10.55
2022-08-02T11:43:38.444Z,11.70
2022-08-02T11:46:13.016Z,12.45
2022-08-02T11:48:42.721Z,7.63
2022-08-02T11:51:14.458Z,10.25
2022-08-02T11:53:44.319Z,16.00
2022-08-02T11:56:14.043Z,12.05
2022-08-02T11:59:06.279Z,12.68
2022-08-02T12:01:45.946Z,10.15
2022-08-02T12:04:19.198Z,13.32
2022-08-02T12:06:56.857Z,13.27
2022-08-02T12:09:24.998Z,9.70
2022-08-02T12:11:54.807Z,14.93
2022-08-02T12:14:24.045Z,12.05
2022-08-02T12:17:09.565Z,8.93
2022-08-02T12:19:38.033Z,9.43
2022-08-02T12:22:11.533Z,9.23
2022-08-02T12:24:41.258Z,10.75
2022-08-02T12:27:10.839Z,8.88
2022-08-02T12:29:57.712Z,9.77
2022-08-02T12:32:27.878Z,7.85
2022-08-02T12:35:03.830Z,11.40
2022-08-02T12:37:31.850Z,11.48
2022-08-02T12:40:00.243Z,13.32
2022-08-02T12:42:29.603Z,11.02
2022-08-02T12:44:59.819Z,9.45
2022-08-02T12:47:31.438Z,12.02
2022-08-02T12:50:14.019Z,9.27
2022-08-02T12:52:42.027Z,8.02
2022-08-02T12:55:24.248Z,8.55
2022-08-02T12:57:55.542Z,9.07
2022-08-02T13:00:28.364Z,10.30
2022-08-02T13:02:57.399Z,8.60
2022-08-02T13:05:26.157Z,9.13
2022-08-02T13:07:54.390Z,12.25
2022-08-02T13:10:23.020Z,9.75
2022-08-02T13:12:51.603Z,11.25
2022-08-02T13:15:46.650Z,8.98
2022-08-02T13:18:11.128Z,9.02
2022-08-02T13:20:45.576Z,6.00
2022-08-02T13:25:52.438Z,8.15
2022-08-02T13:28:21.212Z,7.25
2022-08-02T13:30:50.777Z,11.38
2022-08-02T13:33:19.130Z,10.20
2022-08-02T13:35:47.889Z,8.65
2022-08-02T13:38:15.898Z,8.45
2022-08-02T13:41:04.181Z,6.80
2022-08-02T13:43:54.065Z,8.52
2022-08-02T13:46:28.981Z,9.18
2022-08-02T13:48:57.836Z,10.13
2022-08-02T13:51:25.832Z,9.55
2022-08-02T13:53:53.840Z,10.30
2022-08-02T13:56:35.715Z,9.38
2022-08-02T13:59:26.275Z,7.60
2022-08-02T14:01:53.754Z,7.40
2022-08-02T14:04:21.787Z,6.68
2022-08-02T14:06:49.831Z,7.00
2022-08-02T14:09:17.862Z,6.97
2022-08-02T14:11:46.149Z,11.93
2022-08-02T14:14:16.686Z,10.38
2022-08-02T14:16:45.558Z,6.70
2022-08-02T14:19:17.329Z,11.38
2022-08-02T14:21:46.301Z,6.20
2022-08-02T14:24:15.581Z,8.00
2022-08-02T14:26:43.564Z,9.00
2022-08-02T14:29:11.811Z,5.93
2022-08-02T14:31:43.926Z,5.80
2022-08-02T14:34:14.627Z,5.35
2022-08-02T14:36:42.652Z,6.45
2022-08-02T14:39:11.985Z,6.63
2022-08-02T14:41:58.973Z,7.55
2022-08-02T14:44:28.235Z,10.55
2022-08-02T14:46:56.935Z,7.22
2022-08-02T14:49:27.076Z,8.75
2022-08-02T14:51:55.590Z,6.55
2022-08-02T14:54:30.381Z,6.68
2022-08-02T14:57:00.442Z,7.88
2022-08-02T14:59:29.010Z,7.75
2022-08-02T15:01:57.446Z,7.90
2022-08-02T15:04:27.273Z,6.95
2022-08-02T15:06:55.505Z,7.13
2022-08-02T15:09:23.836Z,5.45
2022-08-02T15:11:51.843Z,8.00
2022-08-02T15:14:25.981Z,4.78
2022-08-02T15:16:57.461Z,6.70
2022-08-02T15:19:55.941Z,4.03
2022-08-02T15:22:19.122Z,7.05
2022-08-02T15:24:47.993Z,4.90
2022-08-02T15:27:17.420Z,5.30
2022-08-02T15:29:46.882Z,4.45
2022-08-02T15:32:17.213Z,4.95
2022-08-02T15:34:47.148Z,5.72
2022-08-02T15:37:15.163Z,6.85
2022-08-02T15:39:43.179Z,5.22
2022-08-02T15:42:11.540Z,5.15
2022-08-02T15:44:39.804Z,4.43
2022-08-02T15:47:08.136Z,4.80
2022-08-02T15:49:40.681Z,4.18
2022-08-02T15:52:11.378Z,6.93
2022-08-02T15:54:39.673Z,6.18
2022-08-02T15:57:07.875Z,4.80
2022-08-02T15:59:35.906Z,4.07
2022-08-02T16:02:04.356Z,4.35
2022-08-02T16:04:33.307Z,5.30
2022-08-02T16:07:01.811Z,6.32
2022-08-02T16:09:31.205Z,5.00
2022-08-02T16:11:59.211Z,4.75
2022-08-02T16:14:27.270Z,2.80
2022-08-02T16:16:56.124Z,4.38
2022-08-02T16:19:47.694Z,4.97
2022-08-02T16:22:12.506Z,5.97
2022-08-02T16:24:42.133Z,4.93
2022-08-02T16:27:10.147Z,4.07
2022-08-02T16:29:38.446Z,4.00
2022-08-02T16:32:07.007Z,5.50
2022-08-02T16:34:56.731Z,4.60
2022-08-02T16:37:23.181Z,3.22
2022-08-02T16:39:52.646Z,4.55
2022-08-02T16:42:25.354Z,4.65
2022-08-02T16:44:54.812Z,5.32
2022-08-02T16:47:37.059Z,2.83
2022-08-02T16:50:11.680Z,2.40
2022-08-02T16:52:40.057Z,3.08
2022-08-02T16:55:11.278Z,3.03
2022-08-02T16:57:43.143Z,4.38
2022-08-02T17:00:15.622Z,3.37
2022-08-02T17:02:44.590Z,4.78
2022-08-02T17:05:15.179Z,3.70
2022-08-02T17:08:07.083Z,4.35
2022-08-02T17:10:33.752Z,3.00
2022-08-02T17:13:18.981Z,3.92
2022-08-02T17:16:17.231Z,2.45
2022-08-02T17:18:42.429Z,3.90
2022-08-02T17:21:10.835Z,2.75
2022-08-02T17:24:05.827Z,3.63
2022-08-02T17:26:28.474Z,2.50
2022-08-02T17:29:15.986Z,2.17
2022-08-02T17:32:05.224Z,3.25
2022-08-02T17:34:34.859Z,3.60
2022-08-02T17:37:05.499Z,1.63
2022-08-02T17:39:51.532Z,1.48
2022-08-02T17:42:23.575Z,2.33
2022-08-02T17:44:52.716Z,1.80
2022-08-02T17:50:12.267Z,3.88
2022-08-02T17:52:52.130Z,2.88
2022-08-02T17:55:21.467Z,2.33
2022-08-02T17:57:57.417Z,3.22
2022-08-02T18:00:33.847Z,3.83
2022-08-02T18:03:05.720Z,3.33
2022-08-02T18:05:38.898Z,1.95
2022-08-02T18:08:07.644Z,4.10
2022-08-02T18:10:35.678Z,3.33
2022-08-02T18:13:05.278Z,3.63
2022-08-02T18:15:33.687Z,2.85
2022-08-02T18:18:01.831Z,2.83
2022-08-02T18:20:29.806Z,2.47
2022-08-02T18:22:58.828Z,3.47
2022-08-02T18:25:37.465Z,2.20
2022-08-02T18:28:16.447Z,2.10
2022-08-02T18:30:44.508Z,2.80
2022-08-02T18:34:00.516Z,3.88
2022-08-02T18:36:01.073Z,2.78
2022-08-02T18:38:31.024Z,1.60
2022-08-02T18:41:02.649Z,2.15
2022-08-02T18:46:20.580Z,2.63
2022-08-02T18:48:48.895Z,2.05
2022-08-02T18:51:18.993Z,2.40
2022-08-02T18:53:50.835Z,1.55
2022-08-02T18:56:24.745Z,3.40
2022-08-02T18:58:55.295Z,1.98
2022-08-02T19:01:32.075Z,2.17
2022-08-02T19:04:02.270Z,3.10
2022-08-02T19:06:30.942Z,2.72
2022-08-02T19:09:05.312Z,1.40
2022-08-02T19:11:41.055Z,2.70
2022-08-02T19:14:11.114Z,4.13
2022-08-02T19:16:39.728Z,3.42
2022-08-02T19:19:07.700Z,7.47
2022-08-02T19:22:18.871Z,3.72
2022-08-02T19:24:24.445Z,5.57
2022-08-02T19:26:54.305Z,4.20
2022-08-02T19:29:25.012Z,4.93
2022-08-02T19:32:40.688Z,5.97
2022-08-02T19:35:01.000Z,8.75
2022-08-02T19:37:36.957Z,3.35
2022-08-02T19:40:07.909Z,4.55
2022-08-02T19:43:13.225Z,5.30
2022-08-02T19:48:15.793Z,3.10
2022-08-02T19:50:44.084Z,2.70
2022-08-02T19:53:18.005Z,11.48
2022-08-02T19:55:59.377Z,7.13
2022-08-02T19:58:30.950Z,8.30
2022-08-02T20:01:01.911Z,3.08
2022-08-02T20:03:52.096Z,3.70
2022-08-02T20:06:18.486Z,2.92
2022-08-02T20:11:35.376Z,4.32
2022-08-02T20:14:05.709Z,1.80
2022-08-02T20:16:36.386Z,2.40
2022-08-02T20:19:07.625Z,1.10
2022-08-02T20:21:37.786Z,5.57
2022-08-02T20:24:10.772Z,10.50
2022-08-02T20:26:47.562Z,3.90
2022-08-02T20:29:17.637Z,9.38
2022-08-02T20:32:06.411Z,4.22
2022-08-02T20:34:36.580Z,2.20
2022-08-02T20:37:59.883Z,3.65
2022-08-02T20:39:53.836Z,3.85
2022-08-02T20:42:23.253Z,5.35
2022-08-02T20:44:54.590Z,5.85
2022-08-02T20:47:39.449Z,10.10
2022-08-02T20:50:31.814Z,3.00
2022-08-02T20:53:00.910Z,4.82
2022-08-02T20:55:31.180Z,4.18
2022-08-02T20:58:02.159Z,1.58
2022-08-02T21:00:31.514Z,4.55
2022-08-02T21:03:01.162Z,7.78
2022-08-02T21:05:54.279Z,2.45
2022-08-02T21:08:20.631Z,6.25
2022-08-02T21:10:51.934Z,4.03
2022-08-02T21:13:47.182Z,1.33
2022-08-02T21:16:33.368Z,1.92
2022-08-02T21:19:03.324Z,1.92
2022-08-02T21:21:37.815Z,4.22
2022-08-02T21:24:06.427Z,1.95
2022-08-02T21:26:34.427Z,4.40
2022-08-02T21:29:03.637Z,1.67
2022-08-02T21:31:33.645Z,3.58
2022-08-02T21:34:19.233Z,2.70
2022-08-02T21:36:50.650Z,3.38
2022-08-02T21:39:18.834Z,2.40
2022-08-02T21:41:48.421Z,4.43
2022-08-02T21:44:17.648Z,2.03
2022-08-02T21:46:46.604Z,1.67
2022-08-02T21:49:20.042Z,2.55
2022-08-02T21:51:49.555Z,7.32
2022-08-02T21:54:20.281Z,2.17
2022-08-02T21:56:50.142Z,2.97
2022-08-02T21:59:26.060Z,2.83
2022-08-02T22:01:56.790Z,1.55
2022-08-02T22:04:27.337Z,6.07
2022-08-02T22:06:55.527Z,1.98
2022-08-02T22:09:42.072Z,6.00
2022-08-02T22:12:16.653Z,2.92
2022-08-02T22:17:51.777Z,2.83
2022-08-02T22:20:14.516Z,5.45
2022-08-02T22:22:43.633Z,2.05
2022-08-02T22:25:27.318Z,2.33
2022-08-02T22:28:36.626Z,2.92
2022-08-02T22:30:51.182Z,6.10
2022-08-02T22:33:38.921Z,1.63
2022-08-02T22:36:12.015Z,3.50
2022-08-02T22:38:44.293Z,3.35
2022-08-02T22:41:13.378Z,1.33
2022-08-02T22:43:42.068Z,3.45
2022-08-02T22:46:10.210Z,10.38
2022-08-02T22:48:44.034Z,4.05
2022-08-02T22:51:13.561Z,2.83
2022-08-02T22:53:41.638Z,3.70
2022-08-02T22:56:09.839Z,1.80
2022-08-02T22:58:40.417Z,2.45
2022-08-02T22:58:45.272Z,2.13
2022-08-02T22:58:54.653Z,1.23
2022-08-02T22:59:08.076Z,4.25
2022-08-02T23:01:26.267Z,4.05
2022-08-02T23:03:54.340Z,3.63
2022-08-02T23:06:23.667Z,5.38
2022-08-02T23:08:51.648Z,1.60
2022-08-02T23:11:19.558Z,3.72
2022-08-02T23:13:47.540Z,2.42
2022-08-02T23:16:37.955Z,1.95
2022-08-02T23:19:23.854Z,2.30
2022-08-02T23:22:10.958Z,1.88
2022-08-02T23:24:39.074Z,1.95
2022-08-02T23:27:07.103Z,3.67
2022-08-02T23:29:35.149Z,1.20
2022-08-02T23:32:03.335Z,3.05
2022-08-02T23:34:31.308Z,1.52
2022-08-02T23:37:03.786Z,3.97
2022-08-02T23:39:32.061Z,4.43
2022-08-02T23:42:00.032Z,9.15
2022-08-02T23:44:29.066Z,2.85
2022-08-02T23:47:00.291Z,2.55
2022-08-02T23:49:29.025Z,1.65
2022-08-02T23:52:01.395Z,1.50
2022-08-02T23:54:31.478Z,2.75
2022-08-02T23:56:59.474Z,3.50
2022-08-02T23:59:27.525Z,1.70
